createdAt,value
2022-10-22T00:01:04.711Z,22.63
2022-10-22T00:03:31.779Z,21.85
2022-10-22T00:05:58.717Z,22.02
2022-10-22T00:08:25.551Z,18.30
2022-10-22T00:10:52.866Z,21.92
2022-10-22T00:13:20.266Z,18.13
2022-10-22T00:15:46.935Z,22.67
2022-10-22T00:18:14.498Z,24.13
2022-10-22T00:20:41.092Z,20.40
2022-10-22T00:23:07.867Z,21.60
2022-10-22T00:25:35.982Z,20.65
2022-10-22T00:28:03.181Z,21.42
2022-10-22T00:30:29.852Z,22.67
2022-10-22T00:32:56.508Z,21.83
2022-10-22T00:35:23.217Z,21.92
2022-10-22T00:37:49.887Z,21.88
2022-10-22T00:40:16.513Z,21.17
2022-10-22T00:42:43.413Z,19.63
2022-10-22T00:45:10.257Z,18.23
2022-10-22T00:47:45.256Z,22.63
2022-10-22T00:52:41.112Z,20.17
2022-10-22T00:55:08.686Z,21.58
2022-10-22T00:57:36.592Z,18.85
2022-10-22T01:00:05.554Z,19.73
2022-10-22T01:02:32.322Z,18.05
2022-10-22T01:04:58.981Z,17.75
2022-10-22T01:07:26.452Z,19.92
2022-10-22T01:10:04.769Z,18.98
2022-10-22T01:12:52.602Z,19.33
2022-10-22T01:15:45.825Z,18.40
2022-10-22T01:18:45.031Z,20.42
2022-10-22T01:21:31.441Z,19.77
2022-10-22T01:24:16.752Z,17.80
2022-10-22T01:27:15.457Z,17.08
2022-10-22T01:30:01.892Z,15.90
2022-10-22T01:32:31.020Z,16.20
2022-10-22T01:35:07.361Z,17.00
2022-10-22T01:37:38.863Z,14.25
2022-10-22T01:40:08.759Z,15.23
2022-10-22T01:42:35.545Z,14.85
2022-10-22T01:45:02.180Z,14.80
2022-10-22T01:47:50.494Z,15.18
2022-10-22T01:50:36.961Z,15.57
2022-10-22T01:53:40.090Z,16.42
2022-10-22T01:56:42.436Z,14.00
2022-10-22T01:59:38.056Z,16.40
2022-10-22T02:02:32.443Z,15.02
2022-10-22T02:05:07.195Z,15.98
2022-10-22T02:07:43.303Z,14.43
2022-10-22T02:10:11.830Z,17.90
2022-10-22T02:12:40.102Z,16.92
2022-10-22T02:15:09.015Z,19.52
2022-10-22T02:17:38.383Z,17.52
2022-10-22T02:20:27.938Z,19.15
2022-10-22T02:22:55.887Z,20.58
2022-10-22T02:25:25.583Z,20.75
2022-10-22T02:28:11.339Z,18.95
2022-10-22T02:30:41.124Z,18.08
2022-10-22T02:33:24.377Z,17.60
2022-10-22T02:35:51.955Z,18.25
2022-10-22T02:38:19.445Z,21.05
2022-10-22T02:40:46.869Z,20.90
2022-10-22T02:43:13.748Z,19.90
2022-10-22T02:45:40.590Z,17.02
2022-10-22T02:48:07.446Z,14.35
2022-10-22T02:50:34.248Z,15.30
2022-10-22T02:53:00.913Z,16.15
2022-10-22T02:55:27.568Z,17.70
2022-10-22T02:57:54.186Z,16.40
2022-10-22T03:00:22.016Z,18.15
2022-10-22T03:02:48.973Z,18.23
2022-10-22T03:05:15.726Z,16.08
2022-10-22T03:07:42.614Z,19.20
2022-10-22T03:10:09.797Z,20.38
2022-10-22T03:12:36.476Z,18.55
2022-10-22T03:15:03.482Z,17.42
2022-10-22T03:17:30.711Z,18.88
2022-10-22T03:19:57.337Z,17.02
2022-10-22T03:22:29.166Z,19.50
2022-10-22T03:25:00.554Z,17.90
2022-10-22T03:27:29.315Z,17.02
2022-10-22T03:29:57.963Z,17.15
2022-10-22T03:32:24.589Z,18.42
2022-10-22T03:34:51.329Z,17.58
2022-10-22T03:37:18.407Z,18.67
2022-10-22T03:39:45.298Z,17.23
2022-10-22T03:42:13.248Z,16.77
2022-10-22T03:44:40.828Z,16.48
2022-10-22T03:47:08.047Z,14.73
2022-10-22T03:49:34.678Z,15.00
2022-10-22T03:52:13.308Z,15.10
2022-10-22T03:54:40.430Z,14.48
2022-10-22T03:57:07.903Z,14.57
2022-10-22T03:59:40.180Z,13.77
2022-10-22T04:02:06.860Z,15.02
2022-10-22T04:04:33.611Z,15.10
2022-10-22T04:07:00.308Z,15.48
2022-10-22T04:09:26.960Z,14.73
2022-10-22T04:11:53.630Z,15.82
2022-10-22T04:14:20.412Z,16.52
2022-10-22T04:16:47.058Z,14.43
2022-10-22T04:19:14.560Z,14.65
2022-10-22T04:21:41.245Z,14.35
2022-10-22T04:24:08.066Z,16.40
2022-10-22T04:26:34.676Z,15.10
2022-10-22T04:29:01.411Z,14.35
2022-10-22T04:31:28.283Z,15.23
2022-10-22T04:33:57.147Z,12.35
2022-10-22T04:36:24.952Z,14.90
2022-10-22T04:38:57.756Z,14.60
2022-10-22T04:41:31.856Z,15.63
2022-10-22T04:43:59.638Z,15.88
2022-10-22T04:46:28.904Z,14.85
2022-10-22T04:48:55.711Z,14.52
2022-10-22T04:51:24.538Z,16.42
2022-10-22T04:53:51.403Z,14.85
2022-10-22T04:56:25.620Z,14.60
2022-10-22T04:59:01.306Z,14.35
2022-10-22T05:01:42.666Z,14.77
2022-10-22T05:04:12.803Z,15.23
2022-10-22T05:06:39.492Z,14.43
2022-10-22T05:09:13.896Z,14.27
2022-10-22T05:11:45.193Z,13.07
2022-10-22T05:14:12.529Z,13.27
2022-10-22T05:16:39.503Z,13.85
2022-10-22T05:19:07.464Z,13.98
2022-10-22T05:21:34.545Z,13.40
2022-10-22T05:24:01.234Z,12.40
2022-10-22T05:26:28.863Z,15.20
2022-10-22T05:28:55.872Z,17.02
2022-10-22T05:31:22.678Z,16.65
2022-10-22T05:33:49.705Z,18.60
2022-10-22T05:36:19.167Z,21.70
2022-10-22T05:38:46.078Z,20.27
2022-10-22T05:41:18.356Z,13.25
2022-10-22T05:43:45.829Z,14.77
2022-10-22T05:46:22.235Z,13.48
2022-10-22T05:48:51.442Z,11.73
2022-10-22T05:51:18.819Z,14.10
2022-10-22T05:53:45.526Z,12.32
2022-10-22T05:56:15.000Z,15.50
2022-10-22T05:58:43.186Z,19.15
2022-10-22T06:01:15.935Z,22.10
2022-10-22T06:03:43.127Z,18.27
2022-10-22T06:06:22.464Z,17.77
2022-10-22T06:08:51.860Z,18.17
2022-10-22T06:11:23.414Z,17.75
2022-10-22T06:13:50.989Z,18.40
2022-10-22T06:16:17.977Z,19.08
2022-10-22T06:18:44.679Z,19.15
2022-10-22T06:21:14.191Z,18.92
2022-10-22T06:23:42.022Z,18.33
2022-10-22T06:26:09.695Z,18.90
2022-10-22T06:28:37.067Z,23.80
2022-10-22T06:31:04.392Z,16.75
2022-10-22T06:33:33.942Z,13.20
2022-10-22T06:36:18.300Z,11.05
2022-10-22T06:38:45.487Z,13.15
2022-10-22T06:41:14.973Z,17.10
2022-10-22T06:43:46.788Z,15.60
2022-10-22T06:46:20.293Z,20.13
2022-10-22T06:48:56.138Z,21.23
2022-10-22T06:51:22.903Z,18.23
2022-10-22T06:53:49.926Z,18.63
2022-10-22T06:56:19.456Z,21.48
2022-10-22T06:58:51.130Z,19.42
2022-10-22T07:01:20.476Z,21.23
2022-10-22T07:03:47.543Z,17.20
2022-10-22T07:06:15.168Z,15.93
2022-10-22T07:08:42.590Z,15.20
2022-10-22T07:11:21.420Z,15.15
2022-10-22T07:13:48.722Z,15.80
2022-10-22T07:16:16.856Z,14.93
2022-10-22T07:18:44.764Z,15.68
2022-10-22T07:21:12.715Z,17.13
2022-10-22T07:23:39.917Z,15.25
2022-10-22T07:26:08.387Z,16.52
2022-10-22T07:28:37.843Z,17.08
2022-10-22T07:31:04.707Z,16.33
2022-10-22T07:33:31.486Z,17.40
2022-10-22T07:36:03.490Z,20.17
2022-10-22T07:38:31.533Z,18.10
2022-10-22T07:40:58.499Z,19.13
2022-10-22T07:43:25.506Z,16.38
2022-10-22T07:45:52.168Z,16.98
2022-10-22T07:48:18.822Z,17.88
2022-10-22T07:50:45.441Z,19.20
2022-10-22T07:53:12.205Z,17.08
2022-10-22T07:55:38.937Z,23.50
2022-10-22T07:58:05.532Z,16.73
2022-10-22T08:00:32.183Z,16.73
2022-10-22T08:02:58.956Z,14.50
2022-10-22T08:05:25.987Z,14.93
2022-10-22T08:07:52.628Z,17.67
2022-10-22T08:10:19.485Z,19.45
2022-10-22T08:12:46.255Z,18.10
2022-10-22T08:15:12.972Z,15.63
2022-10-22T08:17:40.053Z,14.48
2022-10-22T08:20:07.696Z,14.25
2022-10-22T08:22:34.332Z,11.23
2022-10-22T08:25:00.983Z,11.10
2022-10-22T08:27:27.651Z,10.98
2022-10-22T08:29:54.405Z,10.52
2022-10-22T08:32:21.239Z,10.07
2022-10-22T08:34:48.188Z,9.60
2022-10-22T08:37:16.953Z,9.57
2022-10-22T08:39:44.364Z,11.15
2022-10-22T08:42:17.145Z,10.95
2022-10-22T08:44:59.257Z,11.90
2022-10-22T08:47:59.121Z,11.85
2022-10-22T08:50:39.649Z,12.15
2022-10-22T08:53:13.378Z,9.63
2022-10-22T08:55:40.738Z,10.93
2022-10-22T08:58:35.638Z,10.13
2022-10-22T09:01:13.702Z,10.00
2022-10-22T09:03:49.503Z,11.43
2022-10-22T09:06:27.853Z,10.93
2022-10-22T09:08:57.102Z,10.32
2022-10-22T09:11:23.770Z,12.45
2022-10-22T09:13:51.245Z,13.13
2022-10-22T09:16:22.159Z,12.43
2022-10-22T09:19:14.472Z,14.18
2022-10-22T09:22:07.996Z,16.75
2022-10-22T09:24:40.010Z,18.38
2022-10-22T09:27:25.716Z,18.88
2022-10-22T09:29:52.429Z,17.45
2022-10-22T09:32:19.676Z,19.70
2022-10-22T09:34:48.221Z,22.40
2022-10-22T09:37:23.390Z,20.10
2022-10-22T09:39:55.183Z,18.23
2022-10-22T09:42:22.512Z,18.98
2022-10-22T09:44:54.824Z,18.67
2022-10-22T09:48:01.139Z,19.08
2022-10-22T09:50:38.238Z,18.40
2022-10-22T09:53:18.543Z,19.55
2022-10-22T09:55:51.712Z,16.38
2022-10-22T09:58:19.782Z,18.35
2022-10-22T10:00:52.438Z,20.35
2022-10-22T10:03:23.088Z,19.48
2022-10-22T10:05:54.483Z,21.08
2022-10-22T10:08:22.052Z,20.33
2022-10-22T10:10:59.861Z,22.20
2022-10-22T10:13:54.055Z,22.05
2022-10-22T10:16:29.945Z,21.50
2022-10-22T10:19:31.284Z,20.23
2022-10-22T10:22:01.572Z,20.35
2022-10-22T10:24:41.527Z,21.35
2022-10-22T10:27:21.888Z,19.85
2022-10-22T10:30:08.919Z,21.40
2022-10-22T10:33:19.548Z,21.20
2022-10-22T10:35:48.898Z,20.35
2022-10-22T10:38:39.810Z,22.08
2022-10-22T10:41:17.191Z,22.80
2022-10-22T10:44:05.255Z,20.90
2022-10-22T10:47:05.954Z,22.60
2022-10-22T10:49:36.878Z,22.40
2022-10-22T10:52:21.378Z,21.73
2022-10-22T10:55:01.694Z,22.08
2022-10-22T10:57:49.288Z,22.20
2022-10-22T11:00:21.111Z,21.05
2022-10-22T11:03:16.046Z,21.15
2022-10-22T11:05:53.174Z,21.20
2022-10-22T11:08:22.548Z,21.20
2022-10-22T11:10:54.675Z,21.48
2022-10-22T11:13:38.727Z,20.77
2022-10-22T11:16:17.263Z,20.63
2022-10-22T11:18:56.883Z,20.98
2022-10-22T11:21:32.392Z,21.30
2022-10-22T11:24:08.448Z,21.27
2022-10-22T11:26:47.072Z,22.00
2022-10-22T11:29:21.478Z,21.35
2022-10-22T11:31:49.258Z,22.42
2022-10-22T11:34:33.107Z,22.30
2022-10-22T11:37:02.586Z,23.55
2022-10-22T11:39:35.258Z,22.50
2022-10-22T11:42:10.051Z,23.80
2022-10-22T11:45:06.851Z,22.73
2022-10-22T11:47:41.937Z,21.70
2022-10-22T11:50:19.979Z,21.90
2022-10-22T11:53:02.055Z,22.13
2022-10-22T11:55:55.329Z,21.83
2022-10-22T11:58:30.593Z,22.25
2022-10-22T12:01:28.411Z,21.30
2022-10-22T12:03:58.101Z,21.50
2022-10-22T12:06:26.650Z,21.20
2022-10-22T12:08:53.332Z,20.42
2022-10-22T12:11:19.971Z,21.13
2022-10-22T12:14:01.751Z,20.35
2022-10-22T12:16:55.319Z,20.38
2022-10-22T12:19:23.009Z,19.77
2022-10-22T12:21:54.438Z,18.40
2022-10-22T12:24:24.472Z,18.15
2022-10-22T12:26:52.431Z,17.23
2022-10-22T12:29:23.564Z,15.13
2022-10-22T12:31:50.267Z,13.65
2022-10-22T12:34:21.301Z,12.88
2022-10-22T12:36:50.281Z,11.23
2022-10-22T12:39:20.211Z,8.98
2022-10-22T12:41:47.420Z,8.93
2022-10-22T12:44:17.345Z,10.27
2022-10-22T12:46:46.653Z,9.27
2022-10-22T12:49:25.815Z,10.85
2022-10-22T12:51:53.152Z,10.35
2022-10-22T12:54:28.647Z,9.77
2022-10-22T12:56:56.843Z,9.77
2022-10-22T12:59:32.429Z,9.00
2022-10-22T13:01:59.363Z,8.63
2022-10-22T13:04:36.433Z,11.15
2022-10-22T13:07:12.235Z,10.40
2022-10-22T13:09:40.071Z,11.65
2022-10-22T13:12:10.539Z,10.70
2022-10-22T13:14:38.538Z,11.88
2022-10-22T13:17:16.979Z,13.15
2022-10-22T13:19:48.521Z,14.50
2022-10-22T13:22:26.915Z,13.23
2022-10-22T13:24:54.286Z,13.57
2022-10-22T13:27:20.988Z,15.25
2022-10-22T13:29:47.656Z,16.75
2022-10-22T13:32:41.660Z,17.08
2022-10-22T13:35:15.077Z,15.93
2022-10-22T13:37:41.829Z,17.95
2022-10-22T13:40:15.733Z,17.27
2022-10-22T13:42:42.746Z,18.13
2022-10-22T13:45:09.827Z,18.25
2022-10-22T13:47:36.536Z,17.23
2022-10-22T13:50:07.212Z,17.90
2022-10-22T13:52:42.237Z,17.30
2022-10-22T13:55:25.509Z,17.20
2022-10-22T13:58:13.845Z,17.42
2022-10-22T14:00:43.868Z,19.35
2022-10-22T14:03:13.289Z,20.73
2022-10-22T14:05:40.028Z,18.38
2022-10-22T14:08:18.241Z,22.33
2022-10-22T14:10:45.139Z,19.60
2022-10-22T14:13:13.537Z,19.98
2022-10-22T14:15:41.334Z,21.05
2022-10-22T14:18:11.478Z,20.83
2022-10-22T14:20:40.929Z,20.10
2022-10-22T14:25:52.633Z,20.38
2022-10-22T14:28:19.859Z,21.40
2022-10-22T14:30:47.625Z,22.90
2022-10-22T14:33:32.663Z,21.10
2022-10-22T14:36:00.466Z,22.25
2022-10-22T14:38:27.802Z,20.48
2022-10-22T14:40:54.735Z,22.67
2022-10-22T14:43:26.915Z,22.27
2022-10-22T14:45:53.950Z,20.10
2022-10-22T14:48:20.666Z,22.45
2022-10-22T14:50:48.515Z,22.65
2022-10-22T14:53:16.672Z,22.30
2022-10-22T14:55:44.754Z,22.50
2022-10-22T14:58:12.249Z,22.50
2022-10-22T15:00:41.433Z,23.48
2022-10-22T15:03:08.116Z,22.63
2022-10-22T15:05:36.145Z,20.08
2022-10-22T15:08:03.135Z,20.60
2022-10-22T15:10:29.747Z,21.23
2022-10-22T15:12:56.377Z,19.83
2022-10-22T15:15:23.791Z,20.35
2022-10-22T15:17:52.246Z,21.08
2022-10-22T15:20:18.917Z,21.42
2022-10-22T15:22:45.602Z,21.35
2022-10-22T15:25:13.520Z,19.42
2022-10-22T15:27:40.291Z,19.42
2022-10-22T15:30:08.091Z,20.05
2022-10-22T15:32:34.775Z,20.38
2022-10-22T15:35:01.678Z,20.60
2022-10-22T15:37:28.355Z,20.80
2022-10-22T15:39:55.043Z,21.35
2022-10-22T15:42:23.148Z,20.65
2022-10-22T15:44:56.614Z,19.60
2022-10-22T15:47:25.151Z,17.33
2022-10-22T15:49:51.911Z,17.63
2022-10-22T15:52:18.732Z,17.60
2022-10-22T15:54:45.519Z,17.40
2022-10-22T15:57:12.181Z,16.58
2022-10-22T15:59:38.907Z,16.92
2022-10-22T16:02:07.169Z,16.55
2022-10-22T16:04:33.832Z,17.45
2022-10-22T16:07:00.577Z,16.25
2022-10-22T16:09:27.929Z,16.23
2022-10-22T16:11:55.836Z,17.38
2022-10-22T16:14:23.974Z,17.65
2022-10-22T16:16:52.712Z,17.50
2022-10-22T16:19:21.825Z,15.75
2022-10-22T16:21:53.886Z,16.45
2022-10-22T16:24:21.132Z,16.13
2022-10-22T16:26:48.328Z,16.23
2022-10-22T16:29:15.125Z,15.65
2022-10-22T16:31:43.517Z,14.88
2022-10-22T16:34:10.519Z,15.27
2022-10-22T16:36:38.135Z,15.68
2022-10-22T16:39:05.966Z,16.88
2022-10-22T16:41:36.205Z,15.85
2022-10-22T16:44:06.043Z,17.00
2022-10-22T16:46:33.547Z,15.70
2022-10-22T16:49:00.359Z,16.33
2022-10-22T16:51:28.125Z,16.75
2022-10-22T16:53:56.503Z,15.43
2022-10-22T16:56:24.132Z,16.17
2022-10-22T16:58:53.660Z,16.38
2022-10-22T17:01:29.633Z,16.42
2022-10-22T17:03:59.140Z,16.25
2022-10-22T17:06:26.648Z,17.27
2022-10-22T17:08:54.015Z,16.75
2022-10-22T17:11:23.241Z,22.70
2022-10-22T17:13:54.177Z,29.67
2022-10-22T17:16:24.823Z,20.40
2022-10-22T17:18:53.732Z,22.27
2022-10-22T17:21:21.491Z,21.40
2022-10-22T17:23:49.382Z,19.10
2022-10-22T17:26:20.244Z,20.98
2022-10-22T17:28:47.819Z,23.20
2022-10-22T17:31:32.484Z,24.20
2022-10-22T17:33:59.910Z,22.20
2022-10-22T17:36:30.439Z,23.02
2022-10-22T17:39:02.015Z,21.08
2022-10-22T17:41:34.110Z,20.80
2022-10-22T17:44:04.581Z,21.90
2022-10-22T17:46:32.356Z,19.75
2022-10-22T17:49:03.799Z,18.98
2022-10-22T17:51:31.862Z,19.58
2022-10-22T17:53:58.947Z,16.27
2022-10-22T17:56:27.926Z,17.52
2022-10-22T17:58:55.472Z,15.73
2022-10-22T18:01:33.761Z,14.98
2022-10-22T18:04:03.563Z,14.82
2022-10-22T18:06:30.648Z,12.13
2022-10-22T18:08:57.610Z,12.68
2022-10-22T18:11:27.909Z,12.10
2022-10-22T18:13:56.639Z,12.15
2022-10-22T18:16:23.530Z,14.75
2022-10-22T18:18:53.055Z,17.15
2022-10-22T18:21:20.878Z,21.92
2022-10-22T18:23:47.554Z,20.13
2022-10-22T18:26:15.528Z,19.42
2022-10-22T18:28:42.264Z,15.90
2022-10-22T18:31:12.301Z,12.77
2022-10-22T18:33:39.986Z,18.33
2022-10-22T18:36:10.514Z,12.73
2022-10-22T18:38:38.246Z,15.27
2022-10-22T18:41:13.132Z,14.57
2022-10-22T18:43:39.864Z,11.23
2022-10-22T18:46:07.750Z,9.13
2022-10-22T18:48:35.506Z,9.25
2022-10-22T18:51:09.478Z,10.32
2022-10-22T18:53:37.296Z,10.98
2022-10-22T18:56:08.960Z,9.82
2022-10-22T18:58:39.752Z,10.15
2022-10-22T19:01:08.646Z,12.02
2022-10-22T19:03:35.460Z,13.75
2022-10-22T19:06:02.072Z,12.57
2022-10-22T19:08:28.905Z,12.13
2022-10-22T19:10:55.539Z,12.63
2022-10-22T19:13:23.315Z,12.85
2022-10-22T19:15:49.958Z,14.90
2022-10-22T19:18:16.624Z,14.43
2022-10-22T19:20:46.401Z,17.33
2022-10-22T19:23:17.206Z,11.40
2022-10-22T19:25:47.261Z,11.10
2022-10-22T19:28:13.873Z,11.85
2022-10-22T19:30:44.444Z,10.02
2022-10-22T19:33:11.185Z,10.50
2022-10-22T19:35:37.865Z,10.13
2022-10-22T19:38:04.515Z,10.57
2022-10-22T19:40:31.122Z,12.23
2022-10-22T19:42:57.782Z,12.88
2022-10-22T19:45:24.530Z,13.00
2022-10-22T19:47:51.175Z,13.13
2022-10-22T19:50:17.914Z,11.50
2022-10-22T19:52:44.710Z,11.07
2022-10-22T19:55:11.609Z,10.50
2022-10-22T19:57:38.772Z,11.15
2022-10-22T20:00:06.414Z,10.60
2022-10-22T20:02:36.948Z,10.43
2022-10-22T20:05:03.939Z,10.07
2022-10-22T20:07:30.586Z,10.68
2022-10-22T20:09:57.269Z,12.05
2022-10-22T20:12:23.975Z,12.07
2022-10-22T20:14:51.562Z,15.82
2022-10-22T20:17:18.269Z,10.68
2022-10-22T20:19:44.952Z,12.68
2022-10-22T20:22:14.962Z,12.50
2022-10-22T20:24:45.000Z,12.40
2022-10-22T20:27:13.044Z,10.55
2022-10-22T20:29:39.718Z,9.98
2022-10-22T20:32:08.741Z,9.95
2022-10-22T20:34:35.676Z,10.77
2022-10-22T20:37:02.584Z,8.93
2022-10-22T20:39:29.275Z,9.80
2022-10-22T20:41:55.902Z,8.93
2022-10-22T20:44:22.576Z,9.65
2022-10-22T20:46:51.106Z,10.13
2022-10-22T20:49:20.513Z,13.43
2022-10-22T20:51:47.458Z,14.23
2022-10-22T20:54:15.028Z,15.35
2022-10-22T20:56:42.549Z,16.27
2022-10-22T20:59:10.932Z,15.95
2022-10-22T21:01:55.827Z,12.77
2022-10-22T21:04:22.600Z,13.52
2022-10-22T21:06:50.388Z,16.17
2022-10-22T21:09:17.240Z,14.27
2022-10-22T21:11:44.088Z,14.75
2022-10-22T21:14:12.690Z,17.08
2022-10-22T21:16:50.587Z,14.77
2022-10-22T21:19:18.584Z,15.43
2022-10-22T21:21:45.296Z,15.27
2022-10-22T21:24:12.461Z,13.25
2022-10-22T21:26:40.702Z,16.90
2022-10-22T21:29:08.740Z,15.30
2022-10-22T21:31:35.436Z,16.23
2022-10-22T21:34:02.063Z,15.77
2022-10-22T21:36:29.108Z,14.02
2022-10-22T21:38:55.885Z,14.25
2022-10-22T21:41:23.776Z,12.60
2022-10-22T21:43:51.216Z,11.98
2022-10-22T21:46:23.218Z,11.18
2022-10-22T21:48:55.711Z,13.20
2022-10-22T21:51:24.234Z,13.10
2022-10-22T21:56:21.580Z,11.65
2022-10-22T21:58:48.227Z,12.68
2022-10-22T22:01:15.654Z,12.13
2022-10-22T22:03:45.372Z,14.45
2022-10-22T22:06:12.931Z,13.82
2022-10-22T22:08:40.169Z,15.38
2022-10-22T22:11:09.481Z,13.50
2022-10-22T22:13:36.456Z,12.70
2022-10-22T22:16:09.152Z,11.25
2022-10-22T22:18:38.503Z,11.57
2022-10-22T22:21:07.964Z,11.30
2022-10-22T22:23:37.418Z,10.73
2022-10-22T22:26:05.181Z,10.73
2022-10-22T22:28:33.407Z,10.35
2022-10-22T22:31:00.405Z,10.60
2022-10-22T22:33:27.540Z,11.32
2022-10-22T22:35:58.730Z,12.68
2022-10-22T22:38:25.397Z,12.35
2022-10-22T22:40:51.995Z,11.02
2022-10-22T22:43:18.712Z,11.43
2022-10-22T22:45:45.384Z,10.75
2022-10-22T22:48:11.974Z,11.05
2022-10-22T22:50:38.639Z,11.35
2022-10-22T22:53:05.245Z,10.35
2022-10-22T22:55:32.338Z,9.85
2022-10-22T22:57:58.982Z,10.88
2022-10-22T23:00:25.770Z,10.13
2022-10-22T23:02:55.824Z,11.98
2022-10-22T23:05:22.648Z,10.68
2022-10-22T23:07:49.327Z,10.15
2022-10-22T23:10:16.139Z,10.45
2022-10-22T23:12:43.463Z,11.50
2022-10-22T23:15:10.935Z,10.20
2022-10-22T23:17:38.422Z,9.23
2022-10-22T23:20:05.675Z,9.90
2022-10-22T23:22:32.388Z,9.70
2022-10-22T23:24:59.056Z,9.90
2022-10-22T23:27:25.734Z,9.82
2022-10-22T23:29:52.355Z,8.90
2022-10-22T23:32:19.078Z,8.68
2022-10-22T23:34:45.701Z,8.57
2022-10-22T23:37:12.468Z,8.68
2022-10-22T23:39:39.144Z,9.65
2022-10-22T23:42:05.865Z,10.35
2022-10-22T23:44:32.642Z,10.52
2022-10-22T23:46:59.322Z,10.13
2022-10-22T23:49:26.016Z,10.75
2022-10-22T23:51:52.699Z,10.63
2022-10-22T23:54:19.716Z,11.48
2022-10-22T23:56:47.087Z,9.63
